createdAt,value
2023-01-21T00:01:01.579Z,19.73
2023-01-21T00:03:28.564Z,19.76
2023-01-21T00:05:55.698Z,19.78
2023-01-21T00:08:22.808Z,19.78
2023-01-21T00:10:49.761Z,19.77
2023-01-21T00:13:16.757Z,19.76
2023-01-21T00:15:43.708Z,19.78
2023-01-21T00:18:10.694Z,19.80
2023-01-21T00:20:38.089Z,19.80
2023-01-21T00:23:05.301Z,19.84
2023-01-21T00:25:32.254Z,19.84
2023-01-21T00:28:00.433Z,19.83
2023-01-21T00:30:27.454Z,19.83
2023-01-21T00:32:54.371Z,19.80
2023-01-21T00:35:21.539Z,19.77
2023-01-21T00:37:51.171Z,19.75
2023-01-21T00:40:18.460Z,19.72
2023-01-21T00:42:45.678Z,19.70
2023-01-21T00:45:12.731Z,19.66
2023-01-21T00:47:40.095Z,19.66
2023-01-21T00:50:07.789Z,19.62
2023-01-21T00:52:34.890Z,19.64
2023-01-21T00:55:01.882Z,19.61
2023-01-21T00:57:28.971Z,19.58
2023-01-21T00:59:56.109Z,19.54
2023-01-21T01:02:23.270Z,19.54
2023-01-21T01:04:50.248Z,19.55
2023-01-21T01:07:17.300Z,19.58
2023-01-21T01:09:44.242Z,19.55
2023-01-21T01:12:11.415Z,19.52
2023-01-21T01:14:38.346Z,19.51
2023-01-21T01:17:05.400Z,19.49
2023-01-21T01:19:32.327Z,19.47
2023-01-21T01:21:59.250Z,19.44
2023-01-21T01:24:26.290Z,19.43
2023-01-21T01:26:53.210Z,19.41
2023-01-21T01:29:20.046Z,19.40
2023-01-21T01:31:47.040Z,19.38
2023-01-21T01:34:14.171Z,19.33
2023-01-21T01:36:41.151Z,19.30
2023-01-21T01:39:08.260Z,19.28
2023-01-21T01:41:35.810Z,19.26
2023-01-21T01:44:04.309Z,19.25
2023-01-21T01:46:32.726Z,19.23
2023-01-21T01:49:02.763Z,19.20
2023-01-21T01:51:31.956Z,19.19
2023-01-21T01:53:59.621Z,19.14
2023-01-21T01:56:27.282Z,19.11
2023-01-21T01:58:54.386Z,19.08
2023-01-21T02:01:21.285Z,19.06
2023-01-21T02:03:54.820Z,19.05
2023-01-21T02:06:21.717Z,19.03
2023-01-21T02:08:48.750Z,19.01
2023-01-21T02:11:17.877Z,19.02
2023-01-21T02:13:47.166Z,19.00
2023-01-21T02:16:14.422Z,18.96
2023-01-21T02:18:48.107Z,18.97
2023-01-21T02:21:18.247Z,18.95
2023-01-21T02:23:48.227Z,18.90
2023-01-21T02:26:18.204Z,18.90
2023-01-21T02:28:48.301Z,18.87
2023-01-21T02:31:16.732Z,18.86
2023-01-21T02:33:46.864Z,18.83
2023-01-21T02:36:17.080Z,18.82
2023-01-21T02:38:47.536Z,18.78
2023-01-21T02:41:14.802Z,18.73
2023-01-21T02:43:44.854Z,18.71
2023-01-21T02:46:16.823Z,18.69
2023-01-21T02:48:48.702Z,18.64
2023-01-21T02:51:18.588Z,18.64
2023-01-21T02:53:45.683Z,18.61
2023-01-21T02:56:14.361Z,18.60
2023-01-21T02:58:44.644Z,18.58
2023-01-21T03:01:14.697Z,18.55
2023-01-21T03:03:48.958Z,18.52
2023-01-21T03:06:18.939Z,18.50
2023-01-21T03:08:52.255Z,18.47
2023-01-21T03:11:20.580Z,18.47
2023-01-21T03:13:53.546Z,18.46
2023-01-21T03:16:27.651Z,18.40
2023-01-21T03:18:55.485Z,18.38
2023-01-21T03:21:29.835Z,18.37
2023-01-21T03:23:58.869Z,18.35
2023-01-21T03:26:28.772Z,18.28
2023-01-21T03:28:58.754Z,18.26
2023-01-21T03:31:28.663Z,18.25
2023-01-21T03:33:57.392Z,18.21
2023-01-21T03:36:33.006Z,18.17
2023-01-21T03:39:01.614Z,18.15
2023-01-21T03:41:33.863Z,18.13
2023-01-21T03:44:01.042Z,18.13
2023-01-21T03:46:28.282Z,18.09
2023-01-21T03:48:58.139Z,18.10
2023-01-21T03:51:27.899Z,18.09
2023-01-21T03:53:57.862Z,18.09
2023-01-21T03:56:25.541Z,18.05
2023-01-21T03:58:52.514Z,18.03
2023-01-21T04:01:19.723Z,17.98
2023-01-21T04:03:46.733Z,17.96
2023-01-21T04:06:15.895Z,17.96
2023-01-21T04:08:42.914Z,17.93
2023-01-21T04:11:09.800Z,17.90
2023-01-21T04:13:43.457Z,17.88
2023-01-21T04:16:10.353Z,17.85
2023-01-21T04:18:37.280Z,17.88
2023-01-21T04:21:04.210Z,17.81
2023-01-21T04:23:31.205Z,17.79
2023-01-21T04:25:58.047Z,17.77
2023-01-21T04:28:25.038Z,17.70
2023-01-21T04:30:51.999Z,17.72
2023-01-21T04:33:19.108Z,17.67
2023-01-21T04:35:46.087Z,17.70
2023-01-21T04:38:13.377Z,17.62
2023-01-21T04:40:40.268Z,17.64
2023-01-21T04:43:07.165Z,17.58
2023-01-21T04:45:34.101Z,17.59
2023-01-21T04:48:01.052Z,17.60
2023-01-21T04:50:28.203Z,17.57
2023-01-21T04:52:55.163Z,17.55
2023-01-21T04:55:23.650Z,17.52
2023-01-21T04:57:51.811Z,17.51
2023-01-21T05:00:19.026Z,17.47
2023-01-21T05:02:46.088Z,17.49
2023-01-21T05:05:13.038Z,17.40
2023-01-21T05:07:39.969Z,17.43
2023-01-21T05:10:07.041Z,17.40
2023-01-21T05:12:33.996Z,17.40
2023-01-21T05:15:00.885Z,17.39
2023-01-21T05:17:27.827Z,17.34
2023-01-21T05:19:54.775Z,17.33
2023-01-21T05:22:21.635Z,17.31
2023-01-21T05:24:48.576Z,17.29
2023-01-21T05:27:16.284Z,17.29
2023-01-21T05:29:43.173Z,17.26
2023-01-21T05:32:10.584Z,17.23
2023-01-21T05:34:37.448Z,17.25
2023-01-21T05:37:04.309Z,17.19
2023-01-21T05:39:31.209Z,17.18
2023-01-21T05:41:58.085Z,17.18
2023-01-21T05:44:25.015Z,17.17
2023-01-21T05:46:51.891Z,17.15
2023-01-21T05:49:18.881Z,17.16
2023-01-21T05:51:45.830Z,17.16
2023-01-21T05:54:12.658Z,17.11
2023-01-21T05:56:39.701Z,17.12
2023-01-21T05:59:06.617Z,17.07
2023-01-21T06:01:33.457Z,17.10
2023-01-21T06:04:00.298Z,17.07
2023-01-21T06:06:27.190Z,17.04
2023-01-21T06:08:54.154Z,17.02
2023-01-21T06:11:20.991Z,17.01
2023-01-21T06:13:47.922Z,16.99
2023-01-21T06:16:14.804Z,16.96
2023-01-21T06:18:41.645Z,16.97
2023-01-21T06:21:08.616Z,16.97
2023-01-21T06:23:35.456Z,16.92
2023-01-21T06:26:02.623Z,16.93
2023-01-21T06:28:29.768Z,16.92
2023-01-21T06:30:56.826Z,16.87
2023-01-21T06:33:24.307Z,16.87
2023-01-21T06:35:51.154Z,16.87
2023-01-21T06:38:18.059Z,16.87
2023-01-21T06:40:44.954Z,16.84
2023-01-21T06:43:11.813Z,16.85
2023-01-21T06:45:38.851Z,16.79
2023-01-21T06:48:05.833Z,16.80
2023-01-21T06:50:32.777Z,16.78
2023-01-21T06:52:59.705Z,16.80
2023-01-21T06:55:26.607Z,16.76
2023-01-21T06:57:53.505Z,16.69
2023-01-21T07:00:20.734Z,16.74
2023-01-21T07:02:47.753Z,16.73
2023-01-21T07:05:15.656Z,16.71
2023-01-21T07:07:42.768Z,16.67
2023-01-21T07:10:10.251Z,16.68
2023-01-21T07:12:37.126Z,16.63
2023-01-21T07:15:04.487Z,16.62
2023-01-21T07:17:31.461Z,16.64
2023-01-21T07:19:58.499Z,16.63
2023-01-21T07:22:25.456Z,16.63
2023-01-21T07:24:52.303Z,16.60
2023-01-21T07:27:19.216Z,16.59
2023-01-21T07:29:46.070Z,16.57
2023-01-21T07:32:13.127Z,16.54
2023-01-21T07:34:39.999Z,16.52
2023-01-21T07:37:06.888Z,16.53
2023-01-21T07:39:33.839Z,16.52
2023-01-21T07:42:00.718Z,16.49
2023-01-21T07:44:27.989Z,16.50
2023-01-21T07:46:55.020Z,16.49
2023-01-21T07:49:22.023Z,16.50
2023-01-21T07:51:48.989Z,16.45
2023-01-21T07:54:15.969Z,16.46
2023-01-21T07:56:42.965Z,16.43
2023-01-21T07:59:10.650Z,16.43
2023-01-21T08:01:37.629Z,16.48
2023-01-21T08:04:04.670Z,16.52
2023-01-21T08:06:31.580Z,16.56
2023-01-21T08:08:58.502Z,16.58
2023-01-21T08:11:25.450Z,16.62
2023-01-21T08:13:52.349Z,16.66
2023-01-21T08:16:19.390Z,16.67
2023-01-21T08:18:46.247Z,16.74
2023-01-21T08:21:13.163Z,16.77
2023-01-21T08:23:40.064Z,16.80
2023-01-21T08:26:06.998Z,16.84
2023-01-21T08:28:34.338Z,16.87
2023-01-21T08:31:04.338Z,16.91
2023-01-21T08:33:31.385Z,16.95
2023-01-21T08:36:00.297Z,17.00
2023-01-21T08:38:27.248Z,17.02
2023-01-21T08:40:54.163Z,17.05
2023-01-21T08:43:21.140Z,17.08
2023-01-21T08:45:48.233Z,17.11
2023-01-21T08:48:15.274Z,17.15
2023-01-21T08:50:42.216Z,17.19
2023-01-21T08:53:10.281Z,17.21
2023-01-21T08:55:37.248Z,17.26
2023-01-21T08:58:04.663Z,17.32
2023-01-21T09:00:31.824Z,17.37
2023-01-21T09:02:59.435Z,17.42
2023-01-21T09:05:26.442Z,17.48
2023-01-21T09:07:53.414Z,17.53
2023-01-21T09:10:23.707Z,17.58
2023-01-21T09:12:50.643Z,17.64
2023-01-21T09:15:18.047Z,17.70
2023-01-21T09:17:45.311Z,17.75
2023-01-21T09:20:12.854Z,17.82
2023-01-21T09:22:39.830Z,17.86
2023-01-21T09:25:10.587Z,17.91
2023-01-21T09:27:38.389Z,17.97
2023-01-21T09:30:05.872Z,18.02
2023-01-21T09:32:32.930Z,18.07
2023-01-21T09:34:59.934Z,18.15
2023-01-21T09:37:26.955Z,18.19
2023-01-21T09:39:54.103Z,18.23
2023-01-21T09:42:25.009Z,18.28
2023-01-21T09:44:53.174Z,18.31
2023-01-21T09:47:21.523Z,18.37
2023-01-21T09:49:51.608Z,18.40
2023-01-21T09:52:21.759Z,18.42
2023-01-21T09:54:49.072Z,18.47
2023-01-21T09:57:16.516Z,18.48
2023-01-21T09:59:49.514Z,18.52
2023-01-21T10:02:22.294Z,18.57
2023-01-21T10:04:53.369Z,18.61
2023-01-21T10:07:28.154Z,18.64
2023-01-21T10:10:02.052Z,18.70
2023-01-21T10:12:29.387Z,18.76
2023-01-21T10:14:59.587Z,18.80
2023-01-21T10:17:28.063Z,18.83
2023-01-21T10:20:02.936Z,18.88
2023-01-21T10:22:30.166Z,18.92
2023-01-21T10:24:57.525Z,18.96
2023-01-21T10:27:25.602Z,19.03
2023-01-21T10:29:57.954Z,19.06
2023-01-21T10:32:26.508Z,19.09
2023-01-21T10:34:54.505Z,19.13
2023-01-21T10:37:24.660Z,19.15
2023-01-21T10:39:54.750Z,19.17
2023-01-21T10:42:25.071Z,19.19
2023-01-21T10:44:52.425Z,19.22
2023-01-21T10:47:22.485Z,19.25
2023-01-21T10:49:50.982Z,19.27
2023-01-21T10:52:18.336Z,19.30
2023-01-21T10:54:48.487Z,19.33
2023-01-21T10:57:17.039Z,19.35
2023-01-21T10:59:44.221Z,19.39
2023-01-21T11:02:14.440Z,19.39
2023-01-21T11:04:42.463Z,19.43
2023-01-21T11:07:12.272Z,19.45
2023-01-21T11:09:40.631Z,19.47
2023-01-21T11:12:10.412Z,19.51
2023-01-21T11:14:37.441Z,19.53
2023-01-21T11:17:08.668Z,19.56
2023-01-21T11:19:35.981Z,19.59
2023-01-21T11:22:06.427Z,19.60
2023-01-21T11:24:43.356Z,19.66
2023-01-21T11:27:19.529Z,19.68
2023-01-21T11:29:48.345Z,19.72
2023-01-21T11:32:24.579Z,19.73
2023-01-21T11:34:56.033Z,19.76
2023-01-21T11:37:26.444Z,19.78
2023-01-21T11:39:57.305Z,19.81
2023-01-21T11:42:24.808Z,19.83
2023-01-21T11:44:55.276Z,19.82
2023-01-21T11:47:25.595Z,19.82
2023-01-21T11:49:53.613Z,19.83
2023-01-21T11:52:20.997Z,19.85
2023-01-21T11:54:48.406Z,19.84
2023-01-21T11:57:19.111Z,19.84
2023-01-21T11:59:47.509Z,19.86
2023-01-21T12:02:17.693Z,19.86
2023-01-21T12:04:47.457Z,19.83
2023-01-21T12:07:18.604Z,19.82
2023-01-21T12:09:49.371Z,19.33
2023-01-21T12:12:26.475Z,18.99
2023-01-21T12:14:55.878Z,19.17
2023-01-21T12:17:30.747Z,19.29
2023-01-21T12:19:58.080Z,19.38
2023-01-21T12:22:32.826Z,19.43
2023-01-21T12:25:00.294Z,19.46
2023-01-21T12:27:30.584Z,19.50
2023-01-21T12:30:04.508Z,19.54
2023-01-21T12:32:35.083Z,19.57
2023-01-21T12:35:09.873Z,19.61
2023-01-21T12:37:40.130Z,19.65
2023-01-21T12:40:10.473Z,19.67
2023-01-21T12:42:40.809Z,19.72
2023-01-21T12:45:11.945Z,19.75
2023-01-21T12:47:40.956Z,19.80
2023-01-21T12:50:11.581Z,19.84
2023-01-21T12:52:40.323Z,19.89
2023-01-21T12:55:20.180Z,19.92
2023-01-21T12:57:56.277Z,19.95
2023-01-21T13:00:26.600Z,20.00
2023-01-21T13:02:57.430Z,20.06
2023-01-21T13:05:27.621Z,20.08
2023-01-21T13:07:55.296Z,20.14
2023-01-21T13:10:22.943Z,20.19
2023-01-21T13:12:55.540Z,20.23
2023-01-21T13:15:25.238Z,20.27
2023-01-21T13:17:56.081Z,20.31
2023-01-21T13:20:23.860Z,20.37
2023-01-21T13:22:52.190Z,20.41
2023-01-21T13:25:19.631Z,20.45
2023-01-21T13:27:49.706Z,20.49
2023-01-21T13:30:17.541Z,20.52
2023-01-21T13:32:53.807Z,20.56
2023-01-21T13:35:22.235Z,20.58
2023-01-21T13:37:49.763Z,20.63
2023-01-21T13:40:20.078Z,20.66
2023-01-21T13:42:49.151Z,20.69
2023-01-21T13:45:19.315Z,20.68
2023-01-21T13:47:54.260Z,20.71
2023-01-21T13:50:22.954Z,20.74
2023-01-21T13:52:50.638Z,20.75
2023-01-21T13:55:21.118Z,20.77
2023-01-21T13:58:01.581Z,20.75
2023-01-21T14:00:32.128Z,21.04
2023-01-21T14:03:05.086Z,21.09
2023-01-21T14:05:36.897Z,21.17
2023-01-21T14:08:07.126Z,21.19
2023-01-21T14:10:36.534Z,21.23
2023-01-21T14:13:06.783Z,21.24
2023-01-21T14:15:37.103Z,21.29
2023-01-21T14:18:07.214Z,21.27
2023-01-21T14:20:38.450Z,21.34
2023-01-21T14:23:18.708Z,21.37
2023-01-21T14:25:49.214Z,21.36
2023-01-21T14:28:19.668Z,21.34
2023-01-21T14:30:48.282Z,21.35
2023-01-21T14:33:22.310Z,21.32
2023-01-21T14:35:49.828Z,21.33
2023-01-21T14:38:18.315Z,21.31
2023-01-21T14:40:49.437Z,21.26
2023-01-21T14:43:19.602Z,21.22
2023-01-21T14:45:49.804Z,21.23
2023-01-21T14:48:20.129Z,21.17
2023-01-21T14:50:52.016Z,21.14
2023-01-21T14:53:22.236Z,21.10
2023-01-21T14:55:52.243Z,21.09
2023-01-21T14:58:23.354Z,21.10
2023-01-21T15:00:51.262Z,21.05
2023-01-21T15:03:27.564Z,21.06
2023-01-21T15:05:57.623Z,21.02
2023-01-21T15:08:25.934Z,20.97
2023-01-21T15:10:56.358Z,20.95
2023-01-21T15:13:26.474Z,20.89
2023-01-21T15:15:56.606Z,20.82
2023-01-21T15:18:25.562Z,20.80
2023-01-21T15:20:59.020Z,20.74
2023-01-21T15:23:29.338Z,20.69
2023-01-21T15:25:59.457Z,20.66
2023-01-21T15:28:26.789Z,20.58
2023-01-21T15:30:59.312Z,20.55
2023-01-21T15:33:27.343Z,20.49
2023-01-21T15:35:54.749Z,20.46
2023-01-21T15:38:21.964Z,20.39
2023-01-21T15:41:07.539Z,20.37
2023-01-21T15:43:37.805Z,20.31
2023-01-21T15:46:07.954Z,20.25
2023-01-21T15:48:42.184Z,20.23
2023-01-21T15:51:12.747Z,20.19
2023-01-21T15:53:43.279Z,20.15
2023-01-21T15:56:10.712Z,20.13
2023-01-21T15:58:39.147Z,20.10
2023-01-21T16:01:06.655Z,20.09
2023-01-21T16:03:36.972Z,20.02
2023-01-21T16:06:07.201Z,19.97
2023-01-21T16:08:41.215Z,19.94
2023-01-21T16:11:11.936Z,19.89
2023-01-21T16:13:42.705Z,19.89
2023-01-21T16:16:13.269Z,19.84
2023-01-21T16:18:43.705Z,19.82
2023-01-21T16:21:12.385Z,19.81
2023-01-21T16:23:42.227Z,19.77
2023-01-21T16:26:09.438Z,19.75
2023-01-21T16:28:39.571Z,19.75
2023-01-21T16:31:06.849Z,19.73
2023-01-21T16:33:33.963Z,19.70
2023-01-21T16:36:05.282Z,19.69
2023-01-21T16:38:33.323Z,19.66
2023-01-21T16:41:01.806Z,19.61
2023-01-21T16:43:29.160Z,19.55
2023-01-21T16:45:57.530Z,19.50
2023-01-21T16:48:26.479Z,19.39
2023-01-21T16:50:54.887Z,19.38
2023-01-21T16:53:23.408Z,19.37
2023-01-21T16:55:53.664Z,19.35
2023-01-21T16:58:22.386Z,19.36
2023-01-21T17:00:59.043Z,19.26
2023-01-21T17:03:29.405Z,19.21
2023-01-21T17:05:59.522Z,19.19
2023-01-21T17:08:27.043Z,19.17
2023-01-21T17:10:59.818Z,19.07
2023-01-21T17:13:28.398Z,19.03
2023-01-21T17:15:58.601Z,19.06
2023-01-21T17:18:29.396Z,19.03
2023-01-21T17:20:59.736Z,19.00
2023-01-21T17:23:30.057Z,19.01
2023-01-21T17:26:02.509Z,18.97
2023-01-21T17:28:32.984Z,18.97
2023-01-21T17:31:03.298Z,18.94
2023-01-21T17:33:31.335Z,18.91
2023-01-21T17:36:01.681Z,18.90
2023-01-21T17:38:29.771Z,18.88
2023-01-21T17:41:01.579Z,18.85
2023-01-21T17:43:28.749Z,18.85
2023-01-21T17:45:56.827Z,18.81
2023-01-21T17:48:27.082Z,18.79
2023-01-21T17:50:54.528Z,18.75
2023-01-21T17:53:25.782Z,18.71
2023-01-21T17:55:55.905Z,18.70
2023-01-21T17:58:26.106Z,18.69
2023-01-21T18:00:53.334Z,18.63
2023-01-21T18:03:20.543Z,18.60
2023-01-21T18:05:47.786Z,18.57
2023-01-21T18:08:16.174Z,18.58
2023-01-21T18:10:43.871Z,18.53
2023-01-21T18:13:14.301Z,18.51
2023-01-21T18:15:43.308Z,18.48
2023-01-21T18:18:13.471Z,18.48
2023-01-21T18:20:40.486Z,18.44
2023-01-21T18:23:09.962Z,18.40
2023-01-21T18:25:37.662Z,18.41
2023-01-21T18:28:06.715Z,18.37
2023-01-21T18:30:33.829Z,18.32
2023-01-21T18:33:00.907Z,18.32
2023-01-21T18:35:29.879Z,18.30
2023-01-21T18:37:57.111Z,18.27
2023-01-21T18:40:24.346Z,18.26
2023-01-21T18:42:53.015Z,18.20
2023-01-21T18:45:21.175Z,18.21
2023-01-21T18:47:49.302Z,18.18
2023-01-21T18:50:18.631Z,18.19
2023-01-21T18:52:45.797Z,18.12
2023-01-21T18:55:13.696Z,18.15
2023-01-21T18:57:42.475Z,18.11
2023-01-21T19:00:13.464Z,18.09
2023-01-21T19:02:40.550Z,18.06
2023-01-21T19:05:07.972Z,18.05
2023-01-21T19:07:35.611Z,18.03
2023-01-21T19:10:02.884Z,18.00
2023-01-21T19:12:29.969Z,17.97
2023-01-21T19:14:57.171Z,17.94
2023-01-21T19:17:26.433Z,17.94
2023-01-21T19:19:53.971Z,17.92
2023-01-21T19:22:21.275Z,17.90
2023-01-21T19:24:49.190Z,17.88
2023-01-21T19:27:18.307Z,17.84
2023-01-21T19:29:45.445Z,17.83
2023-01-21T19:32:15.215Z,17.81
2023-01-21T19:34:42.845Z,17.77
2023-01-21T19:37:13.176Z,17.75
2023-01-21T19:39:43.254Z,17.74
2023-01-21T19:42:11.723Z,17.73
2023-01-21T19:44:39.916Z,17.70
2023-01-21T19:47:11.404Z,17.65
2023-01-21T19:49:38.582Z,17.64
2023-01-21T19:52:06.221Z,17.60
2023-01-21T19:54:33.442Z,17.61
2023-01-21T19:57:00.509Z,17.58
2023-01-21T19:59:27.652Z,17.53
2023-01-21T20:01:55.117Z,17.51
2023-01-21T20:04:22.373Z,17.51
2023-01-21T20:06:49.851Z,17.46
2023-01-21T20:09:19.212Z,17.45
2023-01-21T20:11:46.386Z,17.44
2023-01-21T20:14:13.591Z,17.42
2023-01-21T20:16:43.908Z,17.38
2023-01-21T20:19:12.342Z,17.35
2023-01-21T20:21:54.766Z,17.35
2023-01-21T20:24:30.644Z,17.27
2023-01-21T20:26:58.399Z,17.27
2023-01-21T20:29:27.451Z,17.27
2023-01-21T20:31:54.873Z,17.24
2023-01-21T20:34:22.035Z,17.23
2023-01-21T20:36:51.574Z,17.19
2023-01-21T20:39:18.531Z,17.17
2023-01-21T20:41:45.637Z,17.16
2023-01-21T20:44:12.664Z,17.17
2023-01-21T20:46:40.214Z,17.21
2023-01-21T20:49:07.304Z,17.25
2023-01-21T20:51:34.789Z,17.27
2023-01-21T20:54:02.318Z,17.28
2023-01-21T20:56:31.414Z,17.31
2023-01-21T20:58:58.642Z,17.33
2023-01-21T21:01:26.463Z,17.38
2023-01-21T21:03:54.971Z,17.42
2023-01-21T21:06:24.228Z,17.44
2023-01-21T21:08:51.426Z,17.50
2023-01-21T21:11:19.172Z,17.53
2023-01-21T21:13:49.260Z,17.60
2023-01-21T21:16:16.611Z,17.64
2023-01-21T21:18:44.086Z,17.70
2023-01-21T21:21:12.871Z,17.77
2023-01-21T21:23:40.206Z,17.82
2023-01-21T21:26:15.512Z,17.89
2023-01-21T21:28:43.411Z,17.94
2023-01-21T21:31:12.547Z,17.99
2023-01-21T21:33:39.742Z,18.05
2023-01-21T21:36:10.953Z,18.08
2023-01-21T21:38:38.407Z,18.15
2023-01-21T21:41:25.325Z,18.20
2023-01-21T21:43:52.357Z,18.26
2023-01-21T21:46:22.426Z,18.31
2023-01-21T21:48:49.517Z,18.36
2023-01-21T21:51:19.877Z,18.41
2023-01-21T21:53:47.421Z,18.46
2023-01-21T21:56:16.903Z,18.51
2023-01-21T21:58:44.189Z,18.57
2023-01-21T22:01:13.194Z,18.60
2023-01-21T22:03:40.504Z,18.63
2023-01-21T22:06:08.139Z,18.70
2023-01-21T22:08:36.901Z,18.75
2023-01-21T22:11:05.762Z,18.80
2023-01-21T22:13:34.644Z,18.84
2023-01-21T22:16:02.127Z,18.89
2023-01-21T22:18:30.335Z,18.92
2023-01-21T22:21:00.452Z,18.97
2023-01-21T22:23:30.608Z,19.01
2023-01-21T22:25:58.583Z,19.05
2023-01-21T22:28:25.585Z,19.10
2023-01-21T22:30:52.761Z,19.13
2023-01-21T22:33:21.891Z,19.20
2023-01-21T22:35:49.427Z,19.22
2023-01-21T22:38:16.571Z,19.26
2023-01-21T22:40:44.100Z,19.30
2023-01-21T22:43:12.112Z,19.35
2023-01-21T22:45:41.109Z,19.39
2023-01-21T22:48:08.347Z,19.43
2023-01-21T22:50:35.403Z,19.47
2023-01-21T22:53:02.969Z,19.50
2023-01-21T22:55:30.148Z,19.54
2023-01-21T22:57:57.575Z,19.57
2023-01-21T23:00:28.458Z,19.62
2023-01-21T23:02:56.051Z,19.66
2023-01-21T23:05:23.158Z,19.69
2023-01-21T23:07:50.710Z,19.73
2023-01-21T23:10:18.741Z,19.77
2023-01-21T23:12:46.133Z,19.80
2023-01-21T23:15:16.519Z,19.83
2023-01-21T23:17:44.483Z,19.87
2023-01-21T23:20:11.809Z,19.90
2023-01-21T23:22:39.105Z,19.93
2023-01-21T23:25:06.615Z,19.95
2023-01-21T23:27:34.366Z,19.99
2023-01-21T23:30:01.599Z,20.02
2023-01-21T23:32:28.767Z,20.03
2023-01-21T23:34:55.865Z,20.07
2023-01-21T23:37:22.787Z,20.12
2023-01-21T23:39:49.947Z,20.15
2023-01-21T23:42:17.468Z,20.17
2023-01-21T23:44:44.455Z,20.20
2023-01-21T23:47:11.513Z,20.24
2023-01-21T23:49:38.645Z,20.26
2023-01-21T23:52:06.902Z,20.29
2023-01-21T23:54:34.336Z,20.33
2023-01-21T23:57:01.501Z,20.34
2023-01-21T23:59:28.463Z,20.36
